Time;durP1;ratioP1;P1;durP2;ratioP2;P2;SDS_P1;SDS_P2;PMS_P1;PMS_P2;Temp;Humidity;BMP_temperature;BMP_pressure;BME280_temperature;BME280_humidity;BME280_pressure;Samples;Min_cycle;Max_cycle;Signal;HPM_P1;HPM_P2
2021/06/26 00:00:26;;;;;;;7.07;4.57;;;;;;;13.33;86.41;99561.63;2020740;77;20577;-74
2021/06/26 00:03:30;;;;;;;7.57;4.03;;;;;;;13.26;86.33;99557.34;2022166;80;20186;-74
2021/06/26 00:06:33;;;;;;;8.60;4.41;;;;;;;13.20;86.60;99558.28;2021836;80;20240;-74
2021/06/26 00:09:36;;;;;;;6.79;4.97;;;;;;;13.23;86.76;99566.06;2022345;80;20612;-73
2021/06/26 00:12:39;;;;;;;10.20;4.05;;;;;;;13.22;86.90;99558.28;2021821;80;20751;-74
2021/06/26 00:15:42;;;;;;;6.04;4.18;;;;;;;13.21;86.86;99559.16;2021089;77;20232;-74
2021/06/26 00:18:45;;;;;;;4.19;3.70;;;;;;;13.19;86.80;99560.91;2021954;80;20196;-75
2021/06/26 00:21:47;;;;;;;8.13;4.19;;;;;;;13.17;86.63;99565.25;2021968;80;20175;-73
2021/06/26 00:24:50;;;;;;;4.61;4.26;;;;;;;13.15;86.52;99567.88;2022336;80;20644;-74
2021/06/26 00:27:53;;;;;;;5.00;3.99;;;;;;;13.11;86.36;99566.22;2022662;80;20171;-74
2021/06/26 00:30:55;;;;;;;7.39;3.66;;;;;;;13.08;86.24;99567.97;2021431;77;21569;-75
2021/06/26 00:33:58;;;;;;;5.71;4.31;;;;;;;13.01;86.18;99562.81;2022434;79;20182;-73
2021/06/26 00:37:01;;;;;;;7.26;4.06;;;;;;;12.99;86.39;99567.19;2021857;80;20721;-74
2021/06/26 00:40:07;;;;;;;5.41;3.84;;;;;;;12.97;86.56;99570.72;2021886;80;20201;-73
2021/06/26 00:43:09;;;;;;;5.15;3.94;;;;;;;12.96;86.50;99577.66;2021408;80;20175;-74
2021/06/26 00:46:12;;;;;;;5.68;3.85;;;;;;;12.93;86.33;99572.50;2021687;77;21404;-74
2021/06/26 00:49:14;;;;;;;4.36;3.89;;;;;;;12.90;86.21;99572.50;2022332;80;20183;-75
2021/06/26 00:52:17;;;;;;;7.49;4.13;;;;;;;12.87;86.24;99575.16;2021454;80;20171;-75
2021/06/26 00:55:21;;;;;;;7.05;3.76;;;;;;;12.83;86.27;99565.63;2021577;80;20354;-74
2021/06/26 00:58:24;;;;;;;6.28;4.38;;;;;;;12.76;86.49;99561.38;2021203;80;20621;-74
2021/06/26 01:01:27;;;;;;;9.54;4.13;;;;;;;12.74;86.80;99559.66;2020690;77;20706;-74
2021/06/26 01:04:30;;;;;;;5.85;4.03;;;;;;;12.69;86.92;99554.50;2021908;80;20273;-74
2021/06/26 01:07:33;;;;;;;9.20;3.97;;;;;;;12.66;86.91;99552.78;2021879;80;20222;-74
2021/06/26 01:10:36;;;;;;;4.97;4.21;;;;;;;12.64;86.90;99554.53;2021106;80;20182;-75
2021/06/26 01:13:39;;;;;;;6.57;4.00;;;;;;;12.63;87.05;99554.56;2021874;80;20171;-74
2021/06/26 01:16:41;;;;;;;4.40;4.00;;;;;;;12.62;87.27;99556.31;2021214;77;20275;-75
2021/06/26 01:19:44;;;;;;;4.15;3.85;;;;;;;12.58;86.97;99556.38;2022152;80;20192;-74
2021/06/26 01:22:51;;;;;;;7.60;3.81;;;;;;;12.56;86.72;99552.88;2020938;80;20211;-74
2021/06/26 01:25:54;;;;;;;6.40;3.95;;;;;;;12.53;86.51;99547.72;2021854;80;20212;-76
2021/06/26 01:28:57;;;;;;;4.84;3.96;;;;;;;12.48;86.56;99539.94;2022330;79;20639;-76
2021/06/26 01:32:00;;;;;;;3.86;3.63;;;;;;;12.46;86.46;99552.13;2020846;77;23983;-73
2021/06/26 01:35:05;;;;;;;5.36;3.71;;;;;;;12.42;86.54;99553.03;2021425;80;20179;-75
2021/06/26 01:38:09;;;;;;;3.92;3.53;;;;;;;12.40;86.69;99552.19;2021622;80;20196;-74
2021/06/26 01:41:12;;;;;;;6.24;4.13;;;;;;;12.34;86.87;99547.88;2021644;80;20171;-74
2021/06/26 01:44:14;;;;;;;5.93;4.39;;;;;;;12.29;87.07;99549.69;2021518;80;20191;-74
2021/06/26 01:47:17;;;;;;;5.25;3.92;;;;;;;12.29;87.29;99554.03;2020824;78;21938;-74
2021/06/26 01:50:21;;;;;;;7.99;4.00;;;;;;;12.28;87.38;99555.75;2021212;80;20189;-74
2021/06/26 01:53:24;;;;;;;4.79;3.95;;;;;;;12.27;87.44;99555.78;2021386;80;20248;-74
2021/06/26 01:56:26;;;;;;;5.56;3.97;;;;;;;12.25;87.64;99544.50;2022351;80;20187;-74
2021/06/26 01:59:29;;;;;;;7.14;3.92;;;;;;;12.23;87.76;99561.91;2022080;80;20170;-75
2021/06/26 02:02:32;;;;;;;7.64;3.59;;;;;;;12.22;87.63;99561.03;2021232;77;21813;-74
2021/06/26 02:05:34;;;;;;;8.77;3.47;;;;;;;12.19;87.55;99562.78;2022793;80;20210;-74
2021/06/26 02:08:37;;;;;;;4.54;3.74;;;;;;;12.15;87.42;99561.06;2022985;80;20179;-74
2021/06/26 02:11:39;;;;;;;4.35;3.69;;;;;;;12.10;87.58;99554.16;2022159;80;20260;-75
2021/06/26 02:14:42;;;;;;;5.16;3.61;;;;;;;12.09;87.73;99547.25;2022357;80;20230;-74
2021/06/26 02:17:45;;;;;;;5.01;3.81;;;;;;;12.08;87.61;99548.13;2021930;77;20206;-75
2021/06/26 02:20:48;;;;;;;3.81;3.20;;;;;;;12.06;87.66;99549.00;2023329;80;20760;-74
2021/06/26 02:23:50;;;;;;;7.25;3.72;;;;;;;12.05;87.42;99547.28;2026931;80;20166;-74
2021/06/26 02:26:53;;;;;;;5.10;3.83;;;;;;;12.01;87.20;99546.41;2023286;79;20234;-76
2021/06/26 02:29:55;;;;;;;5.31;3.50;;;;;;;11.96;87.08;99556.00;2023252;80;20187;-77
2021/06/26 02:32:58;;;;;;;3.83;3.20;;;;;;;11.94;87.16;99546.50;2022687;77;20306;-75
2021/06/26 02:36:01;;;;;;;4.81;3.44;;;;;;;11.92;87.30;99550.84;2023628;80;20546;-75
2021/06/26 02:39:04;;;;;;;3.94;3.64;;;;;;;11.87;87.20;99553.50;2023840;80;21053;-75
2021/06/26 02:42:06;;;;;;;4.20;3.60;;;;;;;11.85;87.22;99557.84;2023815;80;20178;-74
2021/06/26 02:45:10;;;;;;;6.71;3.90;;;;;;;11.83;87.29;99558.69;2022735;80;20211;-74
2021/06/26 02:48:13;;;;;;;5.30;3.53;;;;;;;11.80;87.43;99546.59;2023561;77;21721;-74
2021/06/26 02:51:16;;;;;;;6.32;3.74;;;;;;;11.76;87.52;99552.66;2023204;80;20222;-74
2021/06/26 02:54:19;;;;;;;4.96;3.28;;;;;;;11.66;87.49;99554.44;2023794;80;20212;-74
2021/06/26 02:57:21;;;;;;;5.53;3.71;;;;;;;11.65;87.84;99551.84;2023565;80;20191;-74
2021/06/26 03:00:25;;;;;;;6.51;3.42;;;;;;;11.65;88.02;99557.91;2022735;77;21282;-74
2021/06/26 03:03:28;;;;;;;3.58;3.30;;;;;;;11.67;87.91;99551.00;2023253;80;20172;-75
2021/06/26 03:06:31;;;;;;;3.54;3.25;;;;;;;11.68;87.74;99552.72;2022423;80;20171;-75
2021/06/26 03:09:34;;;;;;;4.45;3.58;;;;;;;11.66;87.56;99554.44;2022735;80;20203;-75
2021/06/26 03:12:37;;;;;;;4.01;3.72;;;;;;;11.64;87.66;99539.72;2021786;80;20661;-74
2021/06/26 03:15:39;;;;;;;5.34;3.50;;;;;;;11.62;87.75;99547.53;2022073;77;20665;-74
2021/06/26 03:18:43;;;;;;;3.51;3.26;;;;;;;11.59;87.93;99541.50;2021524;80;20176;-74
2021/06/26 03:21:46;;;;;;;7.28;3.80;;;;;;;11.61;88.18;99547.53;2022377;80;20224;-74
2021/06/26 03:24:48;;;;;;;3.96;3.44;;;;;;;11.59;88.21;99542.34;2022357;80;20231;-74
2021/06/26 03:27:51;;;;;;;7.71;3.45;;;;;;;11.57;88.17;99540.66;2021861;80;20276;-74
2021/06/26 03:30:53;;;;;;;3.54;3.29;;;;;;;11.56;88.09;99544.13;2020943;78;23818;-75
2021/06/26 03:33:56;;;;;;;5.31;3.36;;;;;;;11.56;88.11;99549.31;2021961;80;20206;-74
2021/06/26 03:36:59;;;;;;;5.19;3.64;;;;;;;11.55;87.99;99545.00;2021931;80;21180;-75
2021/06/26 03:40:03;;;;;;;4.18;3.78;;;;;;;11.53;87.83;99550.22;2021833;80;20987;-76
2021/06/26 03:43:06;;;;;;;4.22;3.50;;;;;;;11.53;87.77;99550.22;2022805;80;20210;-75
2021/06/26 03:46:08;;;;;;;5.25;3.67;;;;;;;11.50;87.71;99542.44;2020949;77;20475;-75
2021/06/26 03:49:11;;;;;;;4.44;3.67;;;;;;;11.47;87.58;99545.88;2021431;80;20171;-75
2021/06/26 03:52:13;;;;;;;3.97;3.71;;;;;;;11.47;87.68;99545.88;2021918;80;20228;-74
2021/06/26 03:55:16;;;;;;;3.47;3.17;;;;;;;11.47;87.87;99550.22;2021940;80;20203;-73
2021/06/26 03:58:23;;;;;;;4.13;3.71;;;;;;;11.47;87.71;99548.47;2022110;80;20572;-74
2021/06/26 04:01:26;;;;;;;3.97;3.38;;;;;;;11.46;87.67;99549.34;2021644;77;21869;-74
2021/06/26 04:04:29;;;;;;;5.81;3.83;;;;;;;11.47;87.84;99543.28;2022612;80;20204;-75
2021/06/26 04:07:31;;;;;;;4.15;3.75;;;;;;;11.52;88.02;99552.81;2022837;80;20251;-77
2021/06/26 04:10:34;;;;;;;3.76;3.41;;;;;;;11.53;88.17;99552.81;2022312;80;20167;-77
2021/06/26 04:13:36;;;;;;;8.50;3.47;;;;;;;11.56;88.25;99557.97;2022694;80;20281;-77
2021/06/26 04:16:39;;;;;;;4.97;3.66;;;;;;;11.55;88.38;99551.06;2021779;77;20171;-76
2021/06/26 04:19:41;;;;;;;4.95;3.66;;;;;;;11.60;88.57;99559.69;2022137;80;20210;-76
2021/06/26 04:22:45;;;;;;;3.71;3.16;;;;;;;11.70;88.80;99550.09;2022274;80;20208;-74
2021/06/26 04:25:48;;;;;;;5.76;3.34;;;;;;;11.78;88.87;99553.50;2021913;80;20171;-77
2021/06/26 04:28:51;;;;;;;5.00;3.45;;;;;;;11.85;88.72;99552.63;2022311;80;20180;-75
2021/06/26 04:31:53;;;;;;;5.75;3.80;;;;;;;11.94;88.58;99549.97;2020954;77;21118;-77
2021/06/26 04:34:56;;;;;;;3.59;3.36;;;;;;;12.05;88.48;99548.16;2022452;80;20202;-75
2021/06/26 04:37:59;;;;;;;4.09;3.80;;;;;;;12.15;88.21;99548.06;2022152;80;20178;-75
2021/06/26 04:41:01;;;;;;;5.01;3.61;;;;;;;12.24;88.10;99548.84;2022131;80;20259;-76
2021/06/26 04:44:05;;;;;;;3.44;3.24;;;;;;;12.32;88.02;99552.25;2021904;80;20208;-74
2021/06/26 04:47:08;;;;;;;5.96;3.58;;;;;;;12.44;88.08;99550.41;2021568;77;20706;-75
2021/06/26 04:50:12;;;;;;;7.44;3.53;;;;;;;12.54;87.91;99549.44;2021573;79;20170;-74
2021/06/26 04:53:15;;;;;;;4.31;3.10;;;;;;;12.64;87.67;99551.09;2021964;80;20210;-74
2021/06/26 04:56:17;;;;;;;6.39;3.40;;;;;;;12.78;87.37;99556.16;2020010;80;20203;-74
2021/06/26 04:59:20;;;;;;;3.61;3.30;;;;;;;12.86;87.03;99555.19;2019784;80;20216;-74
2021/06/26 05:02:22;;;;;;;6.78;3.55;;;;;;;13.00;86.77;99560.25;2019236;77;21825;-74
2021/06/26 05:05:25;;;;;;;4.61;2.88;;;;;;;13.17;86.36;99557.44;2019505;80;20277;-75
2021/06/26 05:08:28;;;;;;;5.19;2.92;;;;;;;13.32;86.04;99562.50;2023666;80;20221;-74
2021/06/26 05:11:30;;;;;;;6.55;3.24;;;;;;;13.46;85.53;99560.56;2020775;80;20200;-77
2021/06/26 05:14:33;;;;;;;8.05;2.90;;;;;;;13.61;84.91;99562.09;2019808;80;20621;-74
2021/06/26 05:17:35;;;;;;;5.05;2.95;;;;;;;13.93;84.13;99566.00;2018802;78;21914;-73
2021/06/26 05:20:39;;;;;;;5.44;3.22;;;;;;;14.23;83.09;99556.81;2020401;80;20240;-74
2021/06/26 05:23:41;;;;;;;4.54;3.04;;;;;;;14.47;82.46;99564.25;2019964;80;20186;-73
2021/06/26 05:26:44;;;;;;;3.22;2.90;;;;;;;14.84;81.08;99564.44;2020024;80;20665;-74
2021/06/26 05:29:48;;;;;;;7.39;3.09;;;;;;;15.18;79.39;99559.44;2020138;80;20248;-74
2021/06/26 05:32:51;;;;;;;3.55;2.92;;;;;;;15.55;77.68;99566.50;2019830;77;21137;-73
2021/06/26 05:35:53;;;;;;;3.95;2.90;;;;;;;15.94;75.95;99559.53;2020075;80;20246;-76
2021/06/26 05:38:56;;;;;;;4.26;3.06;;;;;;;16.38;74.62;99563.72;2019719;80;20298;-75
2021/06/26 05:41:58;;;;;;;5.05;3.76;;;;;;;16.73;73.15;99559.34;2020145;80;20263;-75
2021/06/26 05:45:01;;;;;;;6.93;3.80;;;;;;;17.11;71.99;99560.91;2019897;80;20186;-75
2021/06/26 05:48:04;;;;;;;5.44;3.28;;;;;;;17.42;71.25;99560.91;2020115;77;29207;-75
2021/06/26 05:51:07;;;;;;;7.45;3.60;;;;;;;17.57;70.87;99557.78;2019745;80;20175;-75
2021/06/26 05:54:09;;;;;;;3.92;3.54;;;;;;;17.88;70.31;99562.13;2020112;80;20293;-75
2021/06/26 05:57:12;;;;;;;5.56;3.31;;;;;;;18.18;69.43;99563.81;2020044;80;20167;-75
2021/06/26 06:00:17;;;;;;;4.55;3.44;;;;;;;18.43;68.69;99558.56;2021119;80;20248;-75
2021/06/26 06:03:20;;;;;;;4.61;3.71;;;;;;;18.75;67.68;99562.78;2024351;80;20534;-74
2021/06/26 06:06:22;;;;;;;3.72;3.40;;;;;;;18.96;67.24;99555.88;2022398;80;20836;-75
2021/06/26 06:09:25;;;;;;;5.04;3.42;;;;;;;19.28;65.84;99552.94;2021870;80;20909;-75
2021/06/26 06:12:27;;;;;;;5.36;3.86;;;;;;;19.66;64.33;99561.19;2022446;80;20174;-74
2021/06/26 06:15:30;;;;;;;8.51;4.66;;;;;;;20.11;63.41;99560.31;2021054;77;20382;-75
2021/06/26 06:18:33;;;;;;;5.59;4.11;;;;;;;20.52;61.91;99562.09;2021741;80;20216;-75
2021/06/26 06:21:35;;;;;;;11.88;5.20;;;;;;;20.91;60.48;99573.66;2022447;80;21043;-75
2021/06/26 06:24:38;;;;;;;17.17;5.81;;;;;;;21.11;59.56;99570.97;2023099;80;20178;-78
2021/06/26 06:27:41;;;;;;;10.81;6.26;;;;;;;21.38;59.04;99577.72;2022070;80;20293;-76
2021/06/26 06:30:44;;;;;;;12.32;5.49;;;;;;;21.65;58.26;99583.50;2021555;80;23578;-76
2021/06/26 06:33:46;;;;;;;14.79;5.55;;;;;;;21.82;56.70;99576.56;2021820;80;20202;-76
2021/06/26 06:36:49;;;;;;;8.75;4.30;;;;;;;21.99;56.70;99576.63;2022495;80;20226;-75
2021/06/26 06:39:51;;;;;;;13.18;4.82;;;;;;;22.10;56.31;99581.44;2021788;80;20195;-76
2021/06/26 06:42:54;;;;;;;9.44;4.63;;;;;;;22.20;55.42;99580.88;2022550;80;20172;-75
2021/06/26 06:45:57;;;;;;;15.50;4.53;;;;;;;22.24;56.00;99582.44;2021532;77;20191;-75
2021/06/26 06:49:00;;;;;;;8.54;4.19;;;;;;;22.38;56.08;99578.28;2021785;80;20404;-75
2021/06/26 06:52:03;;;;;;;10.99;4.60;;;;;;;22.44;55.58;99577.97;2021926;80;20175;-75
2021/06/26 06:55:08;;;;;;;10.18;4.00;;;;;;;22.50;55.52;99585.59;2021803;80;20208;-75
2021/06/26 06:58:10;;;;;;;7.31;3.88;;;;;;;22.49;55.70;99583.91;2021425;80;20292;-77
2021/06/26 07:01:13;;;;;;;11.71;3.94;;;;;;;22.55;56.24;99576.50;2021232;77;20171;-76
2021/06/26 07:04:15;;;;;;;7.97;4.21;;;;;;;22.54;54.51;99576.56;2022735;80;20861;-77
2021/06/26 07:07:18;;;;;;;10.98;4.20;;;;;;;22.60;54.55;99573.59;2022187;80;20220;-75
2021/06/26 07:10:21;;;;;;;10.32;4.56;;;;;;;22.63;53.46;99570.84;2022792;80;20186;-76
2021/06/26 07:13:23;;;;;;;13.77;4.38;;;;;;;22.89;53.38;99573.00;2023840;79;20933;-76
2021/06/26 07:16:26;;;;;;;11.66;4.44;;;;;;;23.30;53.35;99572.63;2022162;77;20239;-76
2021/06/26 07:19:29;;;;;;;11.89;4.94;;;;;;;23.55;51.77;99574.81;2025071;80;20213;-75
2021/06/26 07:22:31;;;;;;;18.24;4.18;;;;;;;23.82;51.13;99569.78;2022815;80;20197;-76
2021/06/26 07:25:34;;;;;;;10.57;4.22;;;;;;;23.81;50.31;99568.94;2023087;80;20629;-76
2021/06/26 07:28:37;;;;;;;8.46;4.14;;;;;;;23.56;52.08;99573.00;2022978;80;20942;-75
2021/06/26 07:31:40;;;;;;;5.90;3.39;;;;;;;23.29;51.36;99565.59;2021524;77;20207;-77
2021/06/26 07:34:42;;;;;;;20.76;4.25;;;;;;;23.19;51.63;99573.22;2023255;80;20228;-80
2021/06/26 07:37:45;;;;;;;13.95;4.39;;;;;;;23.16;52.87;99570.72;2025228;80;20175;-78
2021/06/26 07:40:48;;;;;;;13.81;4.71;;;;;;;23.31;52.82;99570.81;2022687;80;20256;-77
2021/06/26 07:43:51;;;;;;;16.48;4.10;;;;;;;23.43;52.17;99575.47;2024549;80;20228;-78
2021/06/26 07:46:53;;;;;;;11.57;4.32;;;;;;;23.74;51.91;99564.06;2022746;78;24236;-75
2021/06/26 07:49:56;;;;;;;14.18;4.10;;;;;;;23.82;49.78;99569.78;2023852;80;20263;-74
2021/06/26 07:52:59;;;;;;;23.33;5.81;;;;;;;24.03;50.57;99573.88;2023727;80;20191;-77
2021/06/26 07:56:01;;;;;;;22.94;5.43;;;;;;;24.25;51.04;99570.88;2024298;80;20187;-77
2021/06/26 07:59:04;;;;;;;18.86;5.63;;;;;;;24.16;51.34;99575.84;2023559;80;20193;-77
2021/06/26 08:02:07;;;;;;;20.21;6.45;;;;;;;23.96;50.47;99567.22;2022199;77;20317;-75
2021/06/26 08:05:10;;;;;;;15.68;5.95;;;;;;;23.93;51.35;99558.59;2023068;80;20183;-76
2021/06/26 08:08:25;;;;;;;16.49;7.51;;;;;;;23.84;51.27;99557.31;2022714;80;20285;-77
2021/06/26 08:11:28;;;;;;;21.05;8.69;;;;;;;23.77;51.65;99558.59;2022721;80;20199;-76
2021/06/26 08:14:31;;;;;;;21.10;9.76;;;;;;;24.02;51.53;99560.72;2023362;80;20266;-76
2021/06/26 08:17:33;;;;;;;27.24;9.86;;;;;;;24.37;50.37;99556.91;2021088;78;23232;-75
2021/06/26 08:20:37;;;;;;;21.76;10.13;;;;;;;24.66;50.55;99552.56;2022068;80;20252;-76
2021/06/26 08:23:39;;;;;;;17.74;9.15;;;;;;;25.05;49.62;99544.94;2022577;80;20214;-76
2021/06/26 08:26:42;;;;;;;21.17;9.49;;;;;;;25.22;48.06;99545.63;2022561;80;20240;-75
2021/06/26 08:29:45;;;;;;;19.13;6.69;;;;;;;25.13;45.82;99538.19;2022976;80;20198;-76
2021/06/26 08:32:48;;;;;;;7.89;4.91;;;;;;;25.28;46.66;99537.25;2021563;77;20802;-76
2021/06/26 08:35:51;;;;;;;7.82;4.05;;;;;;;25.51;46.47;99538.47;2022562;80;20604;-75
2021/06/26 08:38:54;;;;;;;5.64;3.14;;;;;;;25.59;45.54;99540.66;2022330;80;20211;-76
2021/06/26 08:41:58;;;;;;;3.99;2.35;;;;;;;25.73;44.93;99537.13;2021484;80;20971;-76
2021/06/26 08:45:04;;;;;;;3.81;2.19;;;;;;;25.61;43.29;99541.41;2021812;80;20204;-75
2021/06/26 08:48:07;;;;;;;3.24;2.16;;;;;;;25.26;43.24;99531.19;2020698;77;22511;-75
2021/06/26 08:51:10;;;;;;;3.84;1.66;;;;;;;24.88;44.10;99533.50;2022133;80;20822;-76
2021/06/26 08:54:16;;;;;;;10.99;2.25;;;;;;;25.21;46.10;99532.44;2026032;80;20206;-75
2021/06/26 08:57:30;;;;;;;4.29;2.22;;;;;;;25.34;44.36;99536.03;2021795;80;20201;-76
2021/06/26 09:00:33;;;;;;;5.22;1.75;;;;;;;25.59;43.91;99530.00;2020264;77;20679;-77
2021/06/26 09:03:36;;;;;;;4.89;1.52;;;;;;;25.78;43.86;99521.72;2022123;80;20199;-77
2021/06/26 09:06:52;;;;;;;3.55;1.79;;;;;;;26.03;42.57;99528.94;2021215;80;20215;-77
2021/06/26 09:09:56;;;;;;;1.60;1.50;;;;;;;26.18;43.36;99520.81;2021905;80;20187;-76
2021/06/26 09:13:20;;;;;;;1.42;1.33;;;;;;;26.35;41.97;99522.38;2022299;80;20223;-76
2021/06/26 09:16:23;;;;;;;4.96;1.23;;;;;;;26.26;41.46;99525.63;2020686;79;23006;-76
2021/06/26 09:19:28;;;;;;;1.99;1.30;;;;;;;26.50;42.19;99520.50;2020846;80;21041;-76
2021/06/26 09:22:49;;;;;;;2.30;1.44;;;;;;;26.82;41.07;99517.44;2021738;80;20199;-76
2021/06/26 09:26:07;;;;;;;2.25;1.20;;;;;;;26.43;37.71;99520.06;2021474;80;20210;-77
2021/06/26 09:29:15;;;;;;;2.08;1.51;;;;;;;25.94;41.06;99532.22;2021980;80;20186;-76
2021/06/26 09:32:29;;;;;;;2.86;1.72;;;;;;;25.26;40.84;99525.00;2021270;77;20171;-76
2021/06/26 09:35:32;;;;;;;9.16;1.74;;;;;;;24.69;42.66;99531.13;2022454;80;20171;-76
2021/06/26 09:38:53;;;;;;;1.63;1.52;;;;;;;24.26;43.70;99522.16;2022880;80;20232;-75
2021/06/26 09:41:55;;;;;;;4.24;1.60;;;;;;;24.12;44.99;99524.75;2021788;80;20201;-75
2021/06/26 09:45:09;;;;;;;3.25;1.44;;;;;;;24.70;44.59;99524.84;2021904;80;20200;-76
2021/06/26 09:48:14;;;;;;;5.24;1.50;;;;;;;25.33;43.42;99528.16;2016806;80;21302;-76
2021/06/26 09:51:19;;;;;;;1.89;1.48;;;;;;;25.85;43.29;99526.56;2017037;80;20239;-78
2021/06/26 09:54:26;;;;;;;3.96;1.33;;;;;;;26.15;41.83;99525.47;2016465;80;20895;-76
2021/06/26 09:57:38;;;;;;;2.12;1.33;;;;;;;26.63;41.73;99516.03;2015451;80;20256;-77
2021/06/26 10:00:42;;;;;;;2.90;1.44;;;;;;;26.75;38.98;99509.88;2019597;77;21447;-75
2021/06/26 10:03:47;;;;;;;2.79;1.40;;;;;;;26.55;37.76;99515.69;2021616;80;20190;-76
2021/06/26 10:06:50;;;;;;;3.10;1.39;;;;;;;26.12;38.15;99507.06;2021224;80;20256;-75
2021/06/26 10:09:54;;;;;;;4.90;1.40;;;;;;;26.16;39.89;99496.09;2022384;80;20207;-75
2021/06/26 10:12:57;;;;;;;3.44;1.50;;;;;;;26.63;40.69;99497.41;2021047;80;20189;-75
2021/06/26 10:16:02;;;;;;;1.81;1.31;;;;;;;26.98;39.05;99500.28;2020749;80;22103;-75
2021/06/26 10:19:07;;;;;;;2.24;1.21;;;;;;;27.20;38.62;99498.78;2021453;80;20838;-75
2021/06/26 10:22:09;;;;;;;1.75;1.23;;;;;;;27.22;39.77;99496.84;2021180;80;20191;-74
2021/06/26 10:25:13;;;;;;;2.33;1.30;;;;;;;27.36;39.03;99489.56;2022365;80;20728;-75
2021/06/26 10:28:20;;;;;;;2.28;1.21;;;;;;;27.44;37.69;99490.81;2021586;80;20217;-76
2021/06/26 10:31:31;;;;;;;1.55;1.19;;;;;;;27.75;38.16;99487.66;2020826;77;21837;-75
2021/06/26 10:34:41;;;;;;;1.24;1.00;;;;;;;27.98;37.65;99480.59;2021416;80;20213;-74
2021/06/26 10:37:43;;;;;;;1.45;1.00;;;;;;;27.97;35.78;99484.25;2021013;80;20224;-75
2021/06/26 10:41:19;;;;;;;2.47;1.11;;;;;;;28.17;36.89;99482.75;2021098;80;20628;-74
2021/06/26 10:44:22;;;;;;;3.11;1.34;;;;;;;28.09;34.66;99482.50;2021643;80;20265;-74
2021/06/26 10:47:39;;;;;;;1.16;1.00;;;;;;;27.49;36.00;99486.88;2021790;77;21993;-74
2021/06/26 10:50:47;;;;;;;2.30;1.10;;;;;;;27.45;36.79;99495.19;2021729;80;20159;-74
2021/06/26 10:53:50;;;;;;;1.26;1.00;;;;;;;27.56;38.08;99479.28;2022527;80;20702;-75
2021/06/26 10:57:03;;;;;;;1.90;1.02;;;;;;;27.90;37.79;99480.34;2022180;80;20171;-76
2021/06/26 11:00:09;;;;;;;2.33;1.00;;;;;;;28.12;36.31;99479.59;2021874;80;20207;-75
2021/06/26 11:03:20;;;;;;;2.17;0.80;;;;;;;28.43;35.94;99470.13;2022715;77;22409;-75
2021/06/26 11:06:26;;;;;;;1.54;0.80;;;;;;;28.50;35.49;99474.03;2021789;80;20224;-75
2021/06/26 11:09:47;;;;;;;4.55;1.73;;;;;;;28.59;34.76;99466.16;2021110;80;20235;-75
2021/06/26 11:12:49;;;;;;;13.81;2.25;;;;;;;28.40;35.89;99468.56;2021407;80;20937;-75
2021/06/26 11:15:56;;;;;;;2.00;1.00;;;;;;;28.18;35.97;99469.28;2020651;78;20675;-75
2021/06/26 11:19:03;;;;;;;1.27;1.00;;;;;;;28.28;36.51;99465.00;2022730;80;20755;-75
2021/06/26 11:22:06;;;;;;;8.75;2.20;;;;;;;28.33;35.68;99461.09;2022538;80;20159;-74
2021/06/26 11:25:11;;;;;;;1.09;0.76;;;;;;;28.61;35.45;99458.03;2022128;80;20163;-76
2021/06/26 11:28:15;;;;;;;1.31;0.90;;;;;;;28.84;34.46;99457.06;2021719;80;20188;-75
2021/06/26 11:31:18;;;;;;;2.30;0.80;;;;;;;28.47;33.02;99455.56;2020528;78;20195;-75
2021/06/26 11:34:21;;;;;;;4.82;0.82;;;;;;;27.67;35.40;99453.56;2021932;80;20199;-75
2021/06/26 11:37:32;;;;;;;2.50;0.90;;;;;;;26.94;36.83;99460.63;2022155;80;20186;-75
2021/06/26 11:40:35;;;;;;;2.08;0.90;;;;;;;26.50;37.97;99454.75;2021786;80;20508;-75
2021/06/26 11:43:48;;;;;;;1.73;0.86;;;;;;;26.26;39.93;99468.88;2021775;80;20159;-77
2021/06/26 11:47:03;;;;;;;1.66;1.06;;;;;;;26.16;40.54;99466.81;2021509;77;24674;-75
2021/06/26 11:50:17;;;;;;;1.25;0.91;;;;;;;26.30;40.00;99467.69;2022559;80;20228;-75
2021/06/26 11:53:22;;;;;;;1.91;1.10;;;;;;;26.19;39.72;99461.28;2022567;80;20287;-75
2021/06/26 11:56:25;;;;;;;3.54;1.08;;;;;;;26.06;39.73;99459.56;2022501;80;20232;-75
2021/06/26 11:59:44;;;;;;;1.13;0.86;;;;;;;25.91;40.45;99461.44;2022591;80;20175;-75
2021/06/26 12:02:47;;;;;;;0.86;0.85;;;;;;;25.73;39.52;99454.69;2021251;77;22694;-75
2021/06/26 12:05:58;;;;;;;2.41;1.05;;;;;;;26.01;39.81;99453.69;2022628;80;21039;-75
2021/06/26 12:09:01;;;;;;;3.44;0.80;;;;;;;26.50;37.72;99452.09;2022497;80;20179;-75
2021/06/26 12:12:05;;;;;;;0.90;0.79;;;;;;;27.10;37.83;99450.59;2022185;80;20211;-75
2021/06/26 12:15:11;;;;;;;1.48;0.70;;;;;;;27.79;38.08;99446.44;2021404;80;20221;-74
2021/06/26 12:18:13;;;;;;;1.75;0.80;;;;;;;28.32;36.13;99452.25;2021634;77;20354;-74
2021/06/26 12:21:16;;;;;;;2.36;0.90;;;;;;;28.68;35.45;99445.03;2021887;80;20874;-73
2021/06/26 12:24:28;;;;;;;1.27;0.76;;;;;;;28.82;34.15;99448.31;2021650;80;20195;-74
2021/06/26 12:27:31;;;;;;;1.61;0.90;;;;;;;28.64;33.39;99440.88;2022673;79;20252;-74
2021/06/26 12:30:38;;;;;;;2.29;0.91;;;;;;;28.66;34.42;99438.94;2020655;77;24617;-74
2021/06/26 12:33:41;;;;;;;0.79;0.79;;;;;;;28.53;34.33;99441.72;2022040;80;20248;-75
2021/06/26 12:36:57;;;;;;;1.77;0.71;;;;;;;28.03;34.56;99440.25;2022166;80;20163;-74
2021/06/26 12:40:05;;;;;;;4.15;0.91;;;;;;;27.68;35.33;99431.25;2020394;80;20226;-74
2021/06/26 12:43:13;;;;;;;1.80;0.80;;;;;;;27.52;35.76;99427.97;2021555;80;20203;-72
2021/06/26 12:46:17;;;;;;;1.02;0.77;;;;;;;27.99;36.38;99423.59;2021395;77;20467;-72
2021/06/26 12:49:21;;;;;;;0.74;0.63;;;;;;;28.16;35.77;99424.97;2022146;80;20316;-72
2021/06/26 12:52:24;;;;;;;2.29;0.80;;;;;;;28.24;35.67;99426.09;2022816;80;20682;-74
2021/06/26 12:55:26;;;;;;;1.80;0.80;;;;;;;28.05;36.00;99423.13;2021871;80;20278;-74
2021/06/26 12:58:29;;;;;;;4.96;0.80;;;;;;;27.63;37.43;99422.69;2022697;80;20195;-74
2021/06/26 13:01:35;;;;;;;1.19;0.70;;;;;;;27.39;37.35;99421.81;2020416;77;20674;-74
2021/06/26 13:04:43;;;;;;;2.00;0.73;;;;;;;27.55;37.41;99414.41;2021451;80;20210;-74
2021/06/26 13:07:46;;;;;;;0.73;0.73;;;;;;;27.47;36.59;99406.13;2021612;80;20252;-74
2021/06/26 13:10:50;;;;;;;1.52;0.77;;;;;;;27.17;34.74;99400.34;2021855;80;20175;-76
2021/06/26 13:13:53;;;;;;;2.47;0.70;;;;;;;27.53;37.55;99397.66;2021659;80;20197;-75
2021/06/26 13:16:56;;;;;;;0.89;0.70;;;;;;;27.68;36.09;99390.38;2020062;80;41349;-75
2021/06/26 13:20:00;;;;;;;1.25;0.90;;;;;;;27.93;35.59;99389.34;2021259;80;20183;-73
2021/06/26 13:23:09;;;;;;;1.05;0.70;;;;;;;28.41;35.18;99386.59;2021324;80;20240;-73
2021/06/26 13:26:12;;;;;;;1.94;0.60;;;;;;;28.75;35.47;99372.28;2021772;80;20287;-73
2021/06/26 13:29:15;;;;;;;2.70;0.91;;;;;;;29.12;35.09;99372.00;2021572;80;20188;-72
2021/06/26 13:32:18;;;;;;;1.23;0.74;;;;;;;29.06;33.71;99364.47;2020060;77;21303;-73
2021/06/26 13:35:21;;;;;;;1.65;0.80;;;;;;;28.71;34.74;99365.44;2021076;80;20191;-74
2021/06/26 13:38:23;;;;;;;1.65;0.70;;;;;;;28.45;34.39;99366.66;2021359;80;20688;-73
2021/06/26 13:41:26;;;;;;;2.06;0.70;;;;;;;28.34;36.10;99361.31;2021150;80;20171;-73
2021/06/26 13:44:29;;;;;;;0.75;0.70;;;;;;;28.27;36.39;99363.63;2021782;80;20201;-74
2021/06/26 13:47:31;;;;;;;2.66;0.90;;;;;;;27.89;36.12;99356.72;2021325;77;21526;-73
2021/06/26 13:50:34;;;;;;;0.90;0.70;;;;;;;27.61;37.04;99362.38;2021613;80;20175;-73
2021/06/26 13:53:37;;;;;;;1.84;0.88;;;;;;;27.38;36.98;99353.44;2021826;80;20351;-73
2021/06/26 13:56:40;;;;;;;1.35;0.71;;;;;;;27.25;38.63;99353.50;2021186;80;20174;-74
2021/06/26 13:59:42;;;;;;;3.86;0.79;;;;;;;27.03;40.19;99359.56;2021458;80;20276;-73
2021/06/26 14:02:45;;;;;;;2.42;0.80;;;;;;;26.96;39.50;99355.59;2020727;77;20836;-73
2021/06/26 14:05:48;;;;;;;0.82;0.82;;;;;;;26.80;38.90;99349.69;2021451;80;20183;-73
2021/06/26 14:08:50;;;;;;;4.11;0.90;;;;;;;26.54;38.26;99354.19;2021896;80;20648;-73
2021/06/26 14:11:53;;;;;;;1.80;0.80;;;;;;;26.29;38.71;99356.84;2021722;80;20167;-73
2021/06/26 14:14:55;;;;;;;0.98;0.84;;;;;;;26.13;37.95;99352.56;2022044;80;20204;-73
2021/06/26 14:17:58;;;;;;;0.80;0.80;;;;;;;26.07;39.43;99357.47;2021087;77;20962;-75
2021/06/26 14:21:01;;;;;;;1.42;0.88;;;;;;;26.39;41.96;99357.91;2021794;80;20271;-74
2021/06/26 14:24:05;;;;;;;3.49;1.16;;;;;;;26.89;39.85;99342.81;2022412;79;20586;-74